sensor_id;sensor_type;location;lat;lon;timestamp;P1;durP1;ratioP1;P2;durP2;ratioP2
46284;SDS011;32018;59.182;18.148;2023-04-24T00:00:02;2.55;;;2.35;;
46284;SDS011;32018;59.182;18.148;2023-04-24T00:02:30;3.20;;;2.90;;
46284;SDS011;32018;59.182;18.148;2023-04-24T00:04:56;2.20;;;2.10;;
46284;SDS011;32018;59.182;18.148;2023-04-24T00:07:21;1.90;;;1.80;;
46284;SDS011;32018;59.182;18.148;2023-04-24T00:09:47;2.17;;;2.08;;
46284;SDS011;32018;59.182;18.148;2023-04-24T00:12:12;2.10;;;2.00;;
46284;SDS011;32018;59.182;18.148;2023-04-24T00:14:38;2.25;;;2.15;;
46284;SDS011;32018;59.182;18.148;2023-04-24T00:17:03;2.17;;;1.98;;
46284;SDS011;32018;59.182;18.148;2023-04-24T00:19:28;2.10;;;1.90;;
46284;SDS011;32018;59.182;18.148;2023-04-24T00:21:54;1.92;;;1.80;;
46284;SDS011;32018;59.182;18.148;2023-04-24T00:24:19;2.30;;;2.20;;
46284;SDS011;32018;59.182;18.148;2023-04-24T00:26:46;2.10;;;2.00;;
46284;SDS011;32018;59.182;18.148;2023-04-24T00:29:11;2.08;;;1.98;;
46284;SDS011;32018;59.182;18.148;2023-04-24T00:31:36;2.10;;;2.00;;
46284;SDS011;32018;59.182;18.148;2023-04-24T00:34:02;2.17;;;2.08;;
46284;SDS011;32018;59.182;18.148;2023-04-24T00:36:27;2.40;;;2.30;;
46284;SDS011;32018;59.182;18.148;2023-04-24T00:38:53;2.03;;;1.85;;
46284;SDS011;32018;59.182;18.148;2023-04-24T00:41:18;2.00;;;1.90;;
46284;SDS011;32018;59.182;18.148;2023-04-24T00:43:43;1.95;;;1.83;;
46284;SDS011;32018;59.182;18.148;2023-04-24T00:46:09;2.10;;;2.00;;
46284;SDS011;32018;59.182;18.148;2023-04-24T00:48:34;2.10;;;2.00;;
46284;SDS011;32018;59.182;18.148;2023-04-24T00:50:59;2.15;;;2.05;;
46284;SDS011;32018;59.182;18.148;2023-04-24T00:53:25;3.20;;;3.00;;
46284;SDS011;32018;59.182;18.148;2023-04-24T00:55:50;3.55;;;3.15;;
46284;SDS011;32018;59.182;18.148;2023-04-24T00:58:15;1.90;;;1.80;;
46284;SDS011;32018;59.182;18.148;2023-04-24T01:00:40;1.92;;;1.83;;
46284;SDS011;32018;59.182;18.148;2023-04-24T01:03:06;1.90;;;1.80;;
46284;SDS011;32018;59.182;18.148;2023-04-24T01:05:32;3.45;;;3.25;;
46284;SDS011;32018;59.182;18.148;2023-04-24T01:07:57;2.00;;;1.90;;
46284;SDS011;32018;59.182;18.148;2023-04-24T01:10:23;2.00;;;1.77;;
46284;SDS011;32018;59.182;18.148;2023-04-24T01:12:49;2.15;;;2.05;;
46284;SDS011;32018;59.182;18.148;2023-04-24T01:15:15;1.98;;;1.88;;
46284;SDS011;32018;59.182;18.148;2023-04-24T01:17:40;2.15;;;2.05;;
46284;SDS011;32018;59.182;18.148;2023-04-24T01:20:06;2.08;;;1.98;;
46284;SDS011;32018;59.182;18.148;2023-04-24T01:22:32;2.13;;;2.00;;
46284;SDS011;32018;59.182;18.148;2023-04-24T01:24:58;3.25;;;3.05;;
46284;SDS011;32018;59.182;18.148;2023-04-24T01:27:23;1.90;;;1.80;;
46284;SDS011;32018;59.182;18.148;2023-04-24T01:29:48;1.97;;;1.87;;
46284;SDS011;32018;59.182;18.148;2023-04-24T01:32:16;2.20;;;2.10;;
46284;SDS011;32018;59.182;18.148;2023-04-24T01:34:41;1.90;;;1.80;;
46284;SDS011;32018;59.182;18.148;2023-04-24T01:37:07;2.45;;;2.28;;
46284;SDS011;32018;59.182;18.148;2023-04-24T01:39:32;2.10;;;2.00;;
46284;SDS011;32018;59.182;18.148;2023-04-24T01:41:58;2.08;;;1.98;;
46284;SDS011;32018;59.182;18.148;2023-04-24T01:44:24;5.00;;;2.05;;
46284;SDS011;32018;59.182;18.148;2023-04-24T01:46:51;2.45;;;2.30;;
46284;SDS011;32018;59.182;18.148;2023-04-24T01:49:16;2.28;;;2.08;;
46284;SDS011;32018;59.182;18.148;2023-04-24T01:51:42;2.08;;;1.98;;
46284;SDS011;32018;59.182;18.148;2023-04-24T01:54:07;4.32;;;4.03;;
46284;SDS011;32018;59.182;18.148;2023-04-24T01:56:35;1.90;;;1.80;;
46284;SDS011;32018;59.182;18.148;2023-04-24T01:59:02;2.17;;;2.05;;
46284;SDS011;32018;59.182;18.148;2023-04-24T02:01:31;3.65;;;3.38;;
46284;SDS011;32018;59.182;18.148;2023-04-24T02:03:57;2.38;;;2.20;;
46284;SDS011;32018;59.182;18.148;2023-04-24T02:06:23;2.10;;;2.00;;
46284;SDS011;32018;59.182;18.148;2023-04-24T02:08:48;1.98;;;1.88;;
46284;SDS011;32018;59.182;18.148;2023-04-24T02:11:13;1.97;;;1.87;;
46284;SDS011;32018;59.182;18.148;2023-04-24T02:13:39;1.90;;;1.80;;
46284;SDS011;32018;59.182;18.148;2023-04-24T02:16:04;2.58;;;2.40;;
46284;SDS011;32018;59.182;18.148;2023-04-24T02:18:30;1.93;;;1.83;;
46284;SDS011;32018;59.182;18.148;2023-04-24T02:20:55;2.27;;;2.07;;
46284;SDS011;32018;59.182;18.148;2023-04-24T02:23:20;2.30;;;2.20;;
46284;SDS011;32018;59.182;18.148;2023-04-24T02:25:45;2.30;;;2.10;;
46284;SDS011;32018;59.182;18.148;2023-04-24T02:28:10;2.05;;;1.95;;
46284;SDS011;32018;59.182;18.148;2023-04-24T02:30:36;2.00;;;1.90;;
46284;SDS011;32018;59.182;18.148;2023-04-24T02:33:01;2.42;;;2.22;;
46284;SDS011;32018;59.182;18.148;2023-04-24T02:35:26;2.45;;;2.25;;
46284;SDS011;32018;59.182;18.148;2023-04-24T02:37:51;2.20;;;2.00;;
46284;SDS011;32018;59.182;18.148;2023-04-24T02:40:17;2.27;;;2.07;;
46284;SDS011;32018;59.182;18.148;2023-04-24T02:42:42;2.97;;;2.72;;
46284;SDS011;32018;59.182;18.148;2023-04-24T02:45:07;2.27;;;2.07;;
46284;SDS011;32018;59.182;18.148;2023-04-24T02:47:32;2.20;;;2.10;;
46284;SDS011;32018;59.182;18.148;2023-04-24T02:49:58;2.13;;;2.03;;
46284;SDS011;32018;59.182;18.148;2023-04-24T02:52:23;2.37;;;2.17;;
46284;SDS011;32018;59.182;18.148;2023-04-24T02:54:48;1.98;;;1.88;;
46284;SDS011;32018;59.182;18.148;2023-04-24T02:57:14;1.80;;;1.70;;
46284;SDS011;32018;59.182;18.148;2023-04-24T02:59:40;2.17;;;1.98;;
46284;SDS011;32018;59.182;18.148;2023-04-24T03:02:05;2.10;;;1.90;;
46284;SDS011;32018;59.182;18.148;2023-04-24T03:04:30;2.30;;;2.10;;
46284;SDS011;32018;59.182;18.148;2023-04-24T03:06:55;3.00;;;2.80;;
46284;SDS011;32018;59.182;18.148;2023-04-24T03:09:21;2.30;;;2.10;;
46284;SDS011;32018;59.182;18.148;2023-04-24T03:11:46;1.95;;;1.85;;
46284;SDS011;32018;59.182;18.148;2023-04-24T03:14:12;2.10;;;1.90;;
46284;SDS011;32018;59.182;18.148;2023-04-24T03:16:37;2.50;;;2.30;;
46284;SDS011;32018;59.182;18.148;2023-04-24T03:19:02;2.08;;;1.98;;
46284;SDS011;32018;59.182;18.148;2023-04-24T03:21:27;2.10;;;1.93;;
46284;SDS011;32018;59.182;18.148;2023-04-24T03:23:53;2.00;;;1.90;;
46284;SDS011;32018;59.182;18.148;2023-04-24T03:26:18;2.77;;;2.10;;
46284;SDS011;32018;59.182;18.148;2023-04-24T03:28:43;2.35;;;2.15;;
46284;SDS011;32018;59.182;18.148;2023-04-24T03:31:08;2.85;;;2.50;;
46284;SDS011;32018;59.182;18.148;2023-04-24T03:33:34;2.15;;;1.95;;
46284;SDS011;32018;59.182;18.148;2023-04-24T03:35:59;2.57;;;2.37;;
46284;SDS011;32018;59.182;18.148;2023-04-24T03:38:24;1.95;;;1.85;;
46284;SDS011;32018;59.182;18.148;2023-04-24T03:40:49;2.55;;;2.35;;
46284;SDS011;32018;59.182;18.148;2023-04-24T03:43:15;2.10;;;1.90;;
46284;SDS011;32018;59.182;18.148;2023-04-24T03:45:40;2.23;;;2.03;;
46284;SDS011;32018;59.182;18.148;2023-04-24T03:48:05;2.10;;;1.95;;
46284;SDS011;32018;59.182;18.148;2023-04-24T03:50:30;2.17;;;2.08;;
46284;SDS011;32018;59.182;18.148;2023-04-24T03:52:55;2.07;;;1.87;;
46284;SDS011;32018;59.182;18.148;2023-04-24T03:55:21;2.45;;;2.25;;
46284;SDS011;32018;59.182;18.148;2023-04-24T03:57:46;2.43;;;2.23;;
46284;SDS011;32018;59.182;18.148;2023-04-24T04:00:11;1.90;;;1.67;;
46284;SDS011;32018;59.182;18.148;2023-04-24T04:02:37;2.00;;;1.90;;
46284;SDS011;32018;59.182;18.148;2023-04-24T04:05:02;2.10;;;1.90;;
46284;SDS011;32018;59.182;18.148;2023-04-24T04:07:27;1.98;;;1.80;;
46284;SDS011;32018;59.182;18.148;2023-04-24T04:09:54;2.17;;;1.98;;
46284;SDS011;32018;59.182;18.148;2023-04-24T04:12:19;2.60;;;2.38;;
46284;SDS011;32018;59.182;18.148;2023-04-24T04:14:45;2.77;;;2.43;;
46284;SDS011;32018;59.182;18.148;2023-04-24T04:17:10;2.38;;;2.17;;
46284;SDS011;32018;59.182;18.148;2023-04-24T04:19:35;2.50;;;2.30;;
46284;SDS011;32018;59.182;18.148;2023-04-24T04:22:01;2.35;;;2.15;;
46284;SDS011;32018;59.182;18.148;2023-04-24T04:24:26;2.03;;;1.93;;
46284;SDS011;32018;59.182;18.148;2023-04-24T04:26:51;2.53;;;2.30;;
46284;SDS011;32018;59.182;18.148;2023-04-24T04:29:17;2.15;;;1.85;;
46284;SDS011;32018;59.182;18.148;2023-04-24T04:31:43;2.97;;;2.65;;
46284;SDS011;32018;59.182;18.148;2023-04-24T04:34:08;3.08;;;2.78;;
46284;SDS011;32018;59.182;18.148;2023-04-24T04:36:34;2.42;;;2.22;;
46284;SDS011;32018;59.182;18.148;2023-04-24T04:39:01;3.42;;;3.13;;
46284;SDS011;32018;59.182;18.148;2023-04-24T04:41:27;4.40;;;3.63;;
46284;SDS011;32018;59.182;18.148;2023-04-24T04:43:52;3.22;;;2.92;;
46284;SDS011;32018;59.182;18.148;2023-04-24T04:46:18;3.23;;;2.70;;
46284;SDS011;32018;59.182;18.148;2023-04-24T04:48:43;3.25;;;2.50;;
46284;SDS011;32018;59.182;18.148;2023-04-24T04:51:08;3.22;;;2.83;;
46284;SDS011;32018;59.182;18.148;2023-04-24T04:53:33;2.60;;;2.13;;
46284;SDS011;32018;59.182;18.148;2023-04-24T04:55:59;4.07;;;2.33;;
46284;SDS011;32018;59.182;18.148;2023-04-24T04:58:25;2.90;;;2.45;;
46284;SDS011;32018;59.182;18.148;2023-04-24T05:00:50;2.13;;;1.92;;
46284;SDS011;32018;59.182;18.148;2023-04-24T05:03:16;2.47;;;2.17;;
46284;SDS011;32018;59.182;18.148;2023-04-24T05:05:41;3.20;;;2.90;;
46284;SDS011;32018;59.182;18.148;2023-04-24T05:08:07;2.50;;;2.27;;
46284;SDS011;32018;59.182;18.148;2023-04-24T05:10:32;2.50;;;2.30;;
46284;SDS011;32018;59.182;18.148;2023-04-24T05:12:58;2.25;;;2.05;;
46284;SDS011;32018;59.182;18.148;2023-04-24T05:15:23;4.75;;;2.13;;
46284;SDS011;32018;59.182;18.148;2023-04-24T05:17:48;3.53;;;2.47;;
46284;SDS011;32018;59.182;18.148;2023-04-24T05:20:13;2.40;;;2.20;;
46284;SDS011;32018;59.182;18.148;2023-04-24T05:22:39;3.47;;;2.42;;
46284;SDS011;32018;59.182;18.148;2023-04-24T05:25:04;3.72;;;2.60;;
46284;SDS011;32018;59.182;18.148;2023-04-24T05:27:30;2.78;;;2.28;;
46284;SDS011;32018;59.182;18.148;2023-04-24T05:29:55;2.43;;;2.23;;
46284;SDS011;32018;59.182;18.148;2023-04-24T05:32:21;3.08;;;2.40;;
46284;SDS011;32018;59.182;18.148;2023-04-24T05:34:46;2.42;;;2.08;;
46284;SDS011;32018;59.182;18.148;2023-04-24T05:37:12;2.95;;;2.30;;
46284;SDS011;32018;59.182;18.148;2023-04-24T05:39:37;2.97;;;2.10;;
46284;SDS011;32018;59.182;18.148;2023-04-24T05:42:02;3.75;;;2.75;;
46284;SDS011;32018;59.182;18.148;2023-04-24T05:44:29;2.38;;;2.17;;
46284;SDS011;32018;59.182;18.148;2023-04-24T05:46:54;2.50;;;2.13;;
46284;SDS011;32018;59.182;18.148;2023-04-24T05:49:20;2.33;;;1.80;;
46284;SDS011;32018;59.182;18.148;2023-04-24T05:51:46;3.55;;;2.88;;
46284;SDS011;32018;59.182;18.148;2023-04-24T05:54:11;2.28;;;2.08;;
46284;SDS011;32018;59.182;18.148;2023-04-24T05:56:37;1.80;;;1.70;;
46284;SDS011;32018;59.182;18.148;2023-04-24T05:59:02;2.83;;;2.25;;
46284;SDS011;32018;59.182;18.148;2023-04-24T06:01:28;2.60;;;2.40;;
46284;SDS011;32018;59.182;18.148;2023-04-24T06:03:53;3.03;;;2.72;;
46284;SDS011;32018;59.182;18.148;2023-04-24T06:06:18;2.45;;;2.25;;
46284;SDS011;32018;59.182;18.148;2023-04-24T06:08:44;2.65;;;2.45;;
46284;SDS011;32018;59.182;18.148;2023-04-24T06:11:10;2.10;;;1.90;;
46284;SDS011;32018;59.182;18.148;2023-04-24T06:13:35;2.00;;;1.80;;
46284;SDS011;32018;59.182;18.148;2023-04-24T06:16:00;2.87;;;2.30;;
46284;SDS011;32018;59.182;18.148;2023-04-24T06:18:26;2.15;;;1.95;;
46284;SDS011;32018;59.182;18.148;2023-04-24T06:20:51;2.67;;;2.10;;
46284;SDS011;32018;59.182;18.148;2023-04-24T06:23:17;2.03;;;1.83;;
46284;SDS011;32018;59.182;18.148;2023-04-24T06:25:42;1.60;;;1.50;;
46284;SDS011;32018;59.182;18.148;2023-04-24T06:28:07;2.37;;;2.17;;
46284;SDS011;32018;59.182;18.148;2023-04-24T06:30:32;2.23;;;1.70;;
46284;SDS011;32018;59.182;18.148;2023-04-24T06:32:57;2.00;;;1.73;;
46284;SDS011;32018;59.182;18.148;2023-04-24T06:35:23;2.42;;;2.05;;
46284;SDS011;32018;59.182;18.148;2023-04-24T06:37:48;1.40;;;1.30;;
46284;SDS011;32018;59.182;18.148;2023-04-24T06:40:13;1.88;;;1.67;;
46284;SDS011;32018;59.182;18.148;2023-04-24T06:42:38;3.38;;;2.75;;
46284;SDS011;32018;59.182;18.148;2023-04-24T06:45:04;2.88;;;2.60;;
46284;SDS011;32018;59.182;18.148;2023-04-24T06:47:30;9.95;;;3.30;;
46284;SDS011;32018;59.182;18.148;2023-04-24T06:49:55;2.85;;;1.88;;
46284;SDS011;32018;59.182;18.148;2023-04-24T06:52:20;9.02;;;3.70;;
46284;SDS011;32018;59.182;18.148;2023-04-24T06:54:46;2.83;;;2.03;;
46284;SDS011;32018;59.182;18.148;2023-04-24T06:57:11;10.70;;;2.45;;
46284;SDS011;32018;59.182;18.148;2023-04-24T06:59:36;2.20;;;2.00;;
46284;SDS011;32018;59.182;18.148;2023-04-24T07:02:02;1.95;;;1.75;;
46284;SDS011;32018;59.182;18.148;2023-04-24T07:04:27;2.72;;;2.15;;
46284;SDS011;32018;59.182;18.148;2023-04-24T07:06:53;2.78;;;2.42;;
46284;SDS011;32018;59.182;18.148;2023-04-24T07:09:23;2.15;;;1.90;;
46284;SDS011;32018;59.182;18.148;2023-04-24T07:11:49;2.30;;;1.83;;
46284;SDS011;32018;59.182;18.148;2023-04-24T07:14:14;3.25;;;2.95;;
46284;SDS011;32018;59.182;18.148;2023-04-24T07:16:40;2.80;;;2.55;;
46284;SDS011;32018;59.182;18.148;2023-04-24T07:19:05;1.92;;;1.80;;
46284;SDS011;32018;59.182;18.148;2023-04-24T07:21:31;1.73;;;1.60;;
46284;SDS011;32018;59.182;18.148;2023-04-24T07:23:57;1.73;;;1.63;;
46284;SDS011;32018;59.182;18.148;2023-04-24T07:26:22;1.73;;;1.63;;
46284;SDS011;32018;59.182;18.148;2023-04-24T07:28:47;1.70;;;1.50;;
46284;SDS011;32018;59.182;18.148;2023-04-24T07:31:12;1.45;;;1.30;;
46284;SDS011;32018;59.182;18.148;2023-04-24T07:33:37;1.55;;;1.45;;
46284;SDS011;32018;59.182;18.148;2023-04-24T07:36:03;2.50;;;1.50;;
46284;SDS011;32018;59.182;18.148;2023-04-24T07:38:29;1.80;;;1.30;;
46284;SDS011;32018;59.182;18.148;2023-04-24T07:40:54;1.58;;;1.42;;
46284;SDS011;32018;59.182;18.148;2023-04-24T07:43:20;1.55;;;1.45;;
46284;SDS011;32018;59.182;18.148;2023-04-24T07:45:46;1.77;;;1.50;;
46284;SDS011;32018;59.182;18.148;2023-04-24T07:48:11;1.50;;;1.40;;
46284;SDS011;32018;59.182;18.148;2023-04-24T07:50:39;1.65;;;1.45;;
46284;SDS011;32018;59.182;18.148;2023-04-24T07:53:04;1.33;;;1.20;;
46284;SDS011;32018;59.182;18.148;2023-04-24T07:55:30;1.15;;;1.02;;
46284;SDS011;32018;59.182;18.148;2023-04-24T07:57:55;1.27;;;1.13;;
46284;SDS011;32018;59.182;18.148;2023-04-24T08:00:20;1.53;;;1.10;;
46284;SDS011;32018;59.182;18.148;2023-04-24T08:02:45;1.75;;;1.65;;
46284;SDS011;32018;59.182;18.148;2023-04-24T08:05:11;1.30;;;1.20;;
46284;SDS011;32018;59.182;18.148;2023-04-24T08:07:36;1.20;;;1.00;;
46284;SDS011;32018;59.182;18.148;2023-04-24T08:10:01;1.43;;;1.30;;
46284;SDS011;32018;59.182;18.148;2023-04-24T08:12:28;1.30;;;1.00;;
46284;SDS011;32018;59.182;18.148;2023-04-24T08:14:53;1.05;;;0.93;;
46284;SDS011;32018;59.182;18.148;2023-04-24T08:17:18;1.20;;;1.10;;
46284;SDS011;32018;59.182;18.148;2023-04-24T08:19:43;1.10;;;0.90;;
46284;SDS011;32018;59.182;18.148;2023-04-24T08:22:13;1.15;;;0.95;;
46284;SDS011;32018;59.182;18.148;2023-04-24T08:24:38;1.60;;;0.90;;
46284;SDS011;32018;59.182;18.148;2023-04-24T08:27:03;1.15;;;1.05;;
46284;SDS011;32018;59.182;18.148;2023-04-24T08:29:28;1.38;;;0.80;;
46284;SDS011;32018;59.182;18.148;2023-04-24T08:31:54;1.27;;;0.80;;
46284;SDS011;32018;59.182;18.148;2023-04-24T08:34:19;1.27;;;1.00;;
46284;SDS011;32018;59.182;18.148;2023-04-24T08:36:45;1.10;;;0.70;;
46284;SDS011;32018;59.182;18.148;2023-04-24T08:39:10;0.63;;;0.60;;
46284;SDS011;32018;59.182;18.148;2023-04-24T08:41:35;1.17;;;0.80;;
46284;SDS011;32018;59.182;18.148;2023-04-24T08:44:01;1.08;;;0.70;;
46284;SDS011;32018;59.182;18.148;2023-04-24T08:46:27;1.35;;;0.60;;
46284;SDS011;32018;59.182;18.148;2023-04-24T08:48:52;0.85;;;0.85;;
46284;SDS011;32018;59.182;18.148;2023-04-24T08:51:17;1.30;;;0.90;;
46284;SDS011;32018;59.182;18.148;2023-04-24T08:53:43;1.25;;;0.98;;
46284;SDS011;32018;59.182;18.148;2023-04-24T08:56:10;0.82;;;0.82;;
46284;SDS011;32018;59.182;18.148;2023-04-24T08:58:36;0.88;;;0.85;;
46284;SDS011;32018;59.182;18.148;2023-04-24T09:01:01;0.88;;;0.88;;
46284;SDS011;32018;59.182;18.148;2023-04-24T09:03:28;1.55;;;0.80;;
46284;SDS011;32018;59.182;18.148;2023-04-24T09:05:53;0.70;;;0.70;;
46284;SDS011;32018;59.182;18.148;2023-04-24T09:08:19;0.60;;;0.60;;
46284;SDS011;32018;59.182;18.148;2023-04-24T09:10:45;3.38;;;0.85;;
46284;SDS011;32018;59.182;18.148;2023-04-24T09:13:11;0.75;;;0.75;;
46284;SDS011;32018;59.182;18.148;2023-04-24T09:15:37;0.70;;;0.70;;
46284;SDS011;32018;59.182;18.148;2023-04-24T09:18:02;1.05;;;0.70;;
46284;SDS011;32018;59.182;18.148;2023-04-24T09:20:28;2.58;;;0.75;;
46284;SDS011;32018;59.182;18.148;2023-04-24T09:22:53;0.80;;;0.77;;
46284;SDS011;32018;59.182;18.148;2023-04-24T09:25:20;0.85;;;0.85;;
46284;SDS011;32018;59.182;18.148;2023-04-24T09:27:45;0.73;;;0.70;;
46284;SDS011;32018;59.182;18.148;2023-04-24T09:30:11;0.70;;;0.70;;
46284;SDS011;32018;59.182;18.148;2023-04-24T09:32:36;0.75;;;0.60;;
46284;SDS011;32018;59.182;18.148;2023-04-24T09:35:19;0.68;;;0.68;;
46284;SDS011;32018;59.182;18.148;2023-04-24T09:37:45;0.50;;;0.50;;
46284;SDS011;32018;59.182;18.148;2023-04-24T09:40:12;0.60;;;0.60;;
46284;SDS011;32018;59.182;18.148;2023-04-24T09:42:37;0.60;;;0.60;;
46284;SDS011;32018;59.182;18.148;2023-04-24T09:45:03;1.02;;;1.02;;
46284;SDS011;32018;59.182;18.148;2023-04-24T09:47:35;0.50;;;0.50;;
46284;SDS011;32018;59.182;18.148;2023-04-24T09:50:01;0.60;;;0.60;;
46284;SDS011;32018;59.182;18.148;2023-04-24T09:52:33;0.40;;;0.40;;
46284;SDS011;32018;59.182;18.148;2023-04-24T09:54:58;0.60;;;0.60;;
46284;SDS011;32018;59.182;18.148;2023-04-24T09:57:24;0.53;;;0.53;;
46284;SDS011;32018;59.182;18.148;2023-04-24T09:59:49;0.50;;;0.50;;
46284;SDS011;32018;59.182;18.148;2023-04-24T10:02:18;0.50;;;0.50;;
46284;SDS011;32018;59.182;18.148;2023-04-24T10:04:53;0.60;;;0.60;;
46284;SDS011;32018;59.182;18.148;2023-04-24T10:07:19;0.70;;;0.70;;
46284;SDS011;32018;59.182;18.148;2023-04-24T10:09:44;0.70;;;0.70;;
46284;SDS011;32018;59.182;18.148;2023-04-24T10:12:09;0.65;;;0.65;;
46284;SDS011;32018;59.182;18.148;2023-04-24T10:14:35;0.70;;;0.70;;
46284;SDS011;32018;59.182;18.148;2023-04-24T10:17:01;0.80;;;0.80;;
46284;SDS011;32018;59.182;18.148;2023-04-24T10:19:26;0.55;;;0.55;;
46284;SDS011;32018;59.182;18.148;2023-04-24T10:21:51;0.73;;;0.73;;
46284;SDS011;32018;59.182;18.148;2023-04-24T10:24:17;0.50;;;0.50;;
46284;SDS011;32018;59.182;18.148;2023-04-24T10:26:44;0.68;;;0.68;;
46284;SDS011;32018;59.182;18.148;2023-04-24T10:29:10;0.65;;;0.65;;
46284;SDS011;32018;59.182;18.148;2023-04-24T10:31:37;0.60;;;0.60;;
46284;SDS011;32018;59.182;18.148;2023-04-24T10:34:04;0.70;;;0.70;;
46284;SDS011;32018;59.182;18.148;2023-04-24T10:36:29;0.80;;;0.80;;
46284;SDS011;32018;59.182;18.148;2023-04-24T10:38:57;0.70;;;0.70;;
46284;SDS011;32018;59.182;18.148;2023-04-24T10:41:25;0.75;;;0.70;;
46284;SDS011;32018;59.182;18.148;2023-04-24T10:46:37;0.60;;;0.60;;
46284;SDS011;32018;59.182;18.148;2023-04-24T10:49:04;0.85;;;0.70;;
46284;SDS011;32018;59.182;18.148;2023-04-24T10:54:22;0.60;;;0.60;;
46284;SDS011;32018;59.182;18.148;2023-04-24T10:56:48;0.70;;;0.70;;
46284;SDS011;32018;59.182;18.148;2023-04-24T10:59:23;1.40;;;1.30;;
46284;SDS011;32018;59.182;18.148;2023-04-24T11:01:52;0.80;;;0.80;;
46284;SDS011;32018;59.182;18.148;2023-04-24T11:04:21;0.70;;;0.70;;
46284;SDS011;32018;59.182;18.148;2023-04-24T11:06:53;0.82;;;0.82;;
46284;SDS011;32018;59.182;18.148;2023-04-24T11:09:18;1.00;;;0.90;;
46284;SDS011;32018;59.182;18.148;2023-04-24T11:11:46;1.08;;;0.80;;
46284;SDS011;32018;59.182;18.148;2023-04-24T11:14:14;0.90;;;0.82;;
46284;SDS011;32018;59.182;18.148;2023-04-24T11:16:52;0.70;;;0.70;;
46284;SDS011;32018;59.182;18.148;2023-04-24T11:19:22;1.55;;;1.20;;
46284;SDS011;32018;59.182;18.148;2023-04-24T11:26:48;1.13;;;1.02;;
46284;SDS011;32018;59.182;18.148;2023-04-24T11:29:13;0.70;;;0.70;;
46284;SDS011;32018;59.182;18.148;2023-04-24T11:31:43;0.60;;;0.60;;
46284;SDS011;32018;59.182;18.148;2023-04-24T11:34:13;0.65;;;0.65;;
46284;SDS011;32018;59.182;18.148;2023-04-24T11:36:39;0.60;;;0.60;;
46284;SDS011;32018;59.182;18.148;2023-04-24T11:39:05;1.25;;;1.10;;
46284;SDS011;32018;59.182;18.148;2023-04-24T11:41:31;0.82;;;0.77;;
46284;SDS011;32018;59.182;18.148;2023-04-24T11:43:56;1.17;;;1.08;;
46284;SDS011;32018;59.182;18.148;2023-04-24T11:46:22;1.35;;;1.05;;
46284;SDS011;32018;59.182;18.148;2023-04-24T11:48:47;1.00;;;0.90;;
46284;SDS011;32018;59.182;18.148;2023-04-24T11:51:13;0.95;;;0.93;;
46284;SDS011;32018;59.182;18.148;2023-04-24T11:53:38;0.85;;;0.60;;
46284;SDS011;32018;59.182;18.148;2023-04-24T11:56:03;0.70;;;0.70;;
46284;SDS011;32018;59.182;18.148;2023-04-24T11:58:34;0.75;;;0.68;;
46284;SDS011;32018;59.182;18.148;2023-04-24T12:00:59;2.15;;;2.05;;
46284;SDS011;32018;59.182;18.148;2023-04-24T12:03:26;0.80;;;0.80;;
46284;SDS011;32018;59.182;18.148;2023-04-24T12:05:51;1.33;;;1.23;;
46284;SDS011;32018;59.182;18.148;2023-04-24T12:08:28;1.48;;;0.90;;
46284;SDS011;32018;59.182;18.148;2023-04-24T12:10:54;2.15;;;1.55;;
46284;SDS011;32018;59.182;18.148;2023-04-24T12:13:19;0.80;;;0.80;;
46284;SDS011;32018;59.182;18.148;2023-04-24T12:15:45;0.77;;;0.77;;
46284;SDS011;32018;59.182;18.148;2023-04-24T12:18:11;1.83;;;1.20;;
46284;SDS011;32018;59.182;18.148;2023-04-24T12:20:37;1.02;;;0.80;;
46284;SDS011;32018;59.182;18.148;2023-04-24T12:23:03;1.42;;;1.33;;
46284;SDS011;32018;59.182;18.148;2023-04-24T12:25:29;1.35;;;1.25;;
46284;SDS011;32018;59.182;18.148;2023-04-24T12:27:55;1.80;;;1.70;;
46284;SDS011;32018;59.182;18.148;2023-04-24T12:30:21;0.85;;;0.82;;
46284;SDS011;32018;59.182;18.148;2023-04-24T12:32:51;1.15;;;0.95;;
46284;SDS011;32018;59.182;18.148;2023-04-24T12:35:20;1.00;;;1.00;;
46284;SDS011;32018;59.182;18.148;2023-04-24T12:37:48;1.52;;;1.38;;
46284;SDS011;32018;59.182;18.148;2023-04-24T12:40:13;1.23;;;1.13;;
46284;SDS011;32018;59.182;18.148;2023-04-24T12:42:43;1.67;;;1.58;;
46284;SDS011;32018;59.182;18.148;2023-04-24T12:45:08;0.65;;;0.65;;
46284;SDS011;32018;59.182;18.148;2023-04-24T12:47:34;1.20;;;1.10;;
46284;SDS011;32018;59.182;18.148;2023-04-24T12:50:00;1.63;;;1.10;;
46284;SDS011;32018;59.182;18.148;2023-04-24T12:52:25;1.45;;;1.20;;
46284;SDS011;32018;59.182;18.148;2023-04-24T12:54:54;1.25;;;1.15;;
46284;SDS011;32018;59.182;18.148;2023-04-24T12:57:20;0.82;;;0.82;;
46284;SDS011;32018;59.182;18.148;2023-04-24T12:59:45;1.38;;;1.27;;
46284;SDS011;32018;59.182;18.148;2023-04-24T13:02:11;0.88;;;0.88;;
46284;SDS011;32018;59.182;18.148;2023-04-24T13:04:36;0.82;;;0.75;;
46284;SDS011;32018;59.182;18.148;2023-04-24T13:07:02;0.93;;;0.70;;
46284;SDS011;32018;59.182;18.148;2023-04-24T13:09:27;0.82;;;0.80;;
46284;SDS011;32018;59.182;18.148;2023-04-24T13:11:52;0.88;;;0.80;;
46284;SDS011;32018;59.182;18.148;2023-04-24T13:14:17;0.82;;;0.82;;
46284;SDS011;32018;59.182;18.148;2023-04-24T13:16:43;0.77;;;0.77;;
46284;SDS011;32018;59.182;18.148;2023-04-24T13:19:08;0.80;;;0.70;;
46284;SDS011;32018;59.182;18.148;2023-04-24T13:21:33;0.75;;;0.75;;
46284;SDS011;32018;59.182;18.148;2023-04-24T13:23:58;1.23;;;0.95;;
46284;SDS011;32018;59.182;18.148;2023-04-24T13:26:24;0.60;;;0.60;;
46284;SDS011;32018;59.182;18.148;2023-04-24T13:28:49;1.55;;;1.00;;
46284;SDS011;32018;59.182;18.148;2023-04-24T13:31:14;0.90;;;0.90;;
46284;SDS011;32018;59.182;18.148;2023-04-24T13:33:40;1.13;;;0.80;;
46284;SDS011;32018;59.182;18.148;2023-04-24T13:36:05;1.13;;;0.90;;
46284;SDS011;32018;59.182;18.148;2023-04-24T13:38:30;1.80;;;0.88;;
46284;SDS011;32018;59.182;18.148;2023-04-24T13:40:55;1.17;;;0.90;;
46284;SDS011;32018;59.182;18.148;2023-04-24T13:43:21;1.33;;;1.23;;
46284;SDS011;32018;59.182;18.148;2023-04-24T13:45:46;0.80;;;0.80;;
46284;SDS011;32018;59.182;18.148;2023-04-24T13:48:11;1.47;;;1.00;;
46284;SDS011;32018;59.182;18.148;2023-04-24T13:50:38;1.35;;;0.98;;
46284;SDS011;32018;59.182;18.148;2023-04-24T13:53:03;0.88;;;0.70;;
46284;SDS011;32018;59.182;18.148;2023-04-24T13:55:29;1.40;;;1.00;;
46284;SDS011;32018;59.182;18.148;2023-04-24T13:57:54;0.90;;;0.65;;
46284;SDS011;32018;59.182;18.148;2023-04-24T14:00:20;1.20;;;0.80;;
46284;SDS011;32018;59.182;18.148;2023-04-24T14:02:45;0.75;;;0.70;;
46284;SDS011;32018;59.182;18.148;2023-04-24T14:05:10;0.85;;;0.85;;
46284;SDS011;32018;59.182;18.148;2023-04-24T14:07:36;1.27;;;1.02;;
46284;SDS011;32018;59.182;18.148;2023-04-24T14:10:01;1.88;;;1.20;;
46284;SDS011;32018;59.182;18.148;2023-04-24T14:12:27;0.73;;;0.73;;
46284;SDS011;32018;59.182;18.148;2023-04-24T14:14:52;0.70;;;0.60;;
46284;SDS011;32018;59.182;18.148;2023-04-24T14:17:17;3.13;;;1.15;;
46284;SDS011;32018;59.182;18.148;2023-04-24T14:19:42;1.57;;;1.13;;
46284;SDS011;32018;59.182;18.148;2023-04-24T14:22:08;0.98;;;0.80;;
46284;SDS011;32018;59.182;18.148;2023-04-24T14:24:33;2.13;;;0.90;;
46284;SDS011;32018;59.182;18.148;2023-04-24T14:26:58;1.30;;;1.20;;
46284;SDS011;32018;59.182;18.148;2023-04-24T14:29:23;2.60;;;1.52;;
46284;SDS011;32018;59.182;18.148;2023-04-24T14:31:50;2.88;;;1.27;;
46284;SDS011;32018;59.182;18.148;2023-04-24T14:34:16;1.50;;;1.20;;